Pilot Rock, Oregon
Current Conditions -  °F | °C
As of 2:53 PM on Thursday 23 Oct 2014 (Local Time) from KPDT Reporting Station
Haze Haze  
Wind Chill: 52°   Ceiling: 3600
Heat Index: 52°   Visibility: 5mi
Dew Point: 50°   Wind: 6mph
Humidity: 93%   Direction: 150°SSE
Pressure: 29.9"   Gusts: NA
Location:  45.48°N, 118.83°W
Report Text: KPDT 232153Z 15005KT 5SM BR BKN036 OVC055 11/10 A2990 RMK AO2 RAB2054E46 SLP118 P0004 T01110100
Loading
Personal Weather Stations






























Interactive Weather Map New forecast layout! Learn more

10-Day Weather Forecast

Advertisements
Track Severe Weather on mobile